CheckWX is a tool to help pilots better visualize weather data.  It is not intended as a substitute for an official pre-flight weather briefing.

08:01:50 UTC

KFPR TAF
Treasure Coast International Airport
Fort Pierce, Florida, USA
KFPR 190527Z 1906/2006 01004KT 5SM -RA SCT030 OVC040 FM191400 03012G18KT 2SM RA BR SCT015 OVC030 FM200100 01010KT 3SM -RA BR OVC015

Mar-19@
06:00 UTC

Mar-19 @ 06:00 UTC

Mar-19@
14:00 UTC

Mar-19 @ 14:00 UTC

KFPR 190527Z 1906/2006 01004KT 5SM -RA SCT030 OVC040
Wind
  • 010° at 4 KTS
Conditions
Light Rain
Cloud Levels
  • Scattered at 3,000' AGL
  • Overcast at 4,000' AGL

Mar-19@
14:00 UTC

Mar-19 @ 14:00 UTC

Mar-20@
01:00 UTC

Mar-20 @ 01:00 UTC

FM191400 03012G18KT 2SM RA BR SCT015 OVC030

From

From Standard forecast or significant change

Wind
  • 030° at 12 KTS
  • {Gusting to 18 KTS
Conditions
Rain, Mist
Cloud Levels
  • Scattered at 1,500' AGL
  • Overcast at 3,000' AGL

Mar-20@
01:00 UTC

Mar-20 @ 01:00 UTC

Mar-20@
06:00 UTC

Mar-20 @ 06:00 UTC

FM200100 01010KT 3SM -RA BR OVC015

From

From Standard forecast or significant change

Wind
  • 010° at 10 KTS
Conditions
Light Rain, Mist
Cloud Levels
  • Overcast at 1,500' AGL